createdAt,value
2023-01-15T00:00:09.710Z,6.1
2023-01-15T00:01:10.249Z,6.1
2023-01-15T00:02:10.447Z,6.1
2023-01-15T00:03:10.390Z,6
2023-01-15T00:04:09.986Z,6
2023-01-15T00:05:09.852Z,5.9
2023-01-15T00:06:09.905Z,5.9
2023-01-15T00:07:10.474Z,5.9
2023-01-15T00:08:10.637Z,5.9
2023-01-15T00:09:10.203Z,5.8
2023-01-15T00:10:10.437Z,5.8
2023-01-15T00:11:10.122Z,5.7
2023-01-15T00:12:10.007Z,5.7
2023-01-15T00:13:10.173Z,5.7
2023-01-15T00:14:09.605Z,5.6
2023-01-15T00:15:10.148Z,5.6
2023-01-15T00:16:09.823Z,5.6
2023-01-15T00:17:10.234Z,5.5
2023-01-15T00:18:10.036Z,5.5
2023-01-15T00:19:10.273Z,5.5
2023-01-15T00:20:10.280Z,5.5
2023-01-15T00:21:10.338Z,5.4
2023-01-15T00:22:10.237Z,5.4
2023-01-15T00:23:09.618Z,5.4
2023-01-15T00:24:10.125Z,5.4
2023-01-15T00:25:10.124Z,5.3
2023-01-15T00:26:10.385Z,5.3
2023-01-15T00:27:10.743Z,5.3
2023-01-15T00:28:10.016Z,5.3
2023-01-15T00:29:10.217Z,5.3
2023-01-15T00:30:09.987Z,5.3
2023-01-15T00:31:09.798Z,5.2
2023-01-15T00:32:10.186Z,5.2
2023-01-15T00:33:10.302Z,5.2
2023-01-15T00:34:09.634Z,5.2
2023-01-15T00:35:11.017Z,5.2
2023-01-15T00:36:09.663Z,5.2
2023-01-15T00:37:10.236Z,5.1
2023-01-15T00:38:10.922Z,5.1
2023-01-15T00:39:09.662Z,5.1
2023-01-15T00:40:10.355Z,5
2023-01-15T00:41:09.587Z,5.1
2023-01-15T00:42:10.757Z,5
2023-01-15T00:43:10.110Z,5
2023-01-15T00:44:09.928Z,5
2023-01-15T00:45:10.527Z,5
2023-01-15T00:47:10.805Z,4.9
2023-01-15T00:48:09.916Z,4.9
2023-01-15T00:49:10.040Z,4.9
2023-01-15T00:50:09.549Z,4.9
2023-01-15T00:51:09.542Z,4.9
2023-01-15T00:52:09.963Z,4.9
2023-01-15T00:53:09.570Z,4.9
2023-01-15T00:54:10.818Z,4.9
2023-01-15T00:55:10.247Z,4.9
2023-01-15T00:56:10.589Z,4.9
2023-01-15T00:57:10.862Z,4.9
2023-01-15T00:58:10.283Z,4.9
2023-01-15T00:59:09.533Z,4.9
2023-01-15T01:00:09.595Z,4.9
2023-01-15T01:01:10.471Z,4.9
2023-01-15T01:02:10.860Z,4.9
2023-01-15T01:03:09.877Z,4.9
2023-01-15T01:04:10.608Z,4.9
2023-01-15T01:05:10.218Z,4.9
2023-01-15T01:06:10.243Z,4.9
2023-01-15T01:07:09.649Z,4.9
2023-01-15T01:08:10.055Z,4.8
2023-01-15T01:09:11.871Z,4.8
2023-01-15T01:10:10.364Z,4.8
2023-01-15T01:11:10.462Z,4.8
2023-01-15T01:12:10.783Z,4.8
2023-01-15T01:13:09.873Z,4.8
2023-01-15T01:14:09.685Z,4.8
2023-01-15T01:15:10.598Z,4.8
2023-01-15T01:16:09.604Z,4.8
2023-01-15T01:17:11.030Z,4.8
2023-01-15T01:18:09.984Z,4.8
2023-01-15T01:19:10.225Z,4.8
2023-01-15T01:20:09.942Z,4.8
2023-01-15T01:21:09.628Z,4.8
2023-01-15T01:22:10.520Z,4.8
2023-01-15T01:23:10.551Z,4.8
2023-01-15T01:24:09.655Z,4.8
2023-01-15T01:25:11.083Z,4.7
2023-01-15T01:26:11.102Z,4.8
2023-01-15T01:27:10.190Z,4.7
2023-01-15T01:28:09.742Z,4.7
2023-01-15T01:29:12.340Z,4.8
2023-01-15T01:30:10.576Z,4.8
2023-01-15T01:31:10.331Z,4.8
2023-01-15T01:32:10.407Z,4.7
2023-01-15T01:33:09.900Z,4.7
2023-01-15T01:34:10.501Z,4.8
2023-01-15T01:35:10.301Z,4.7
2023-01-15T01:36:09.997Z,4.8
2023-01-15T01:37:09.914Z,4.8
2023-01-15T01:38:10.032Z,4.8
2023-01-15T01:39:10.604Z,4.8
2023-01-15T01:40:09.742Z,4.8
2023-01-15T01:41:10.436Z,4.8
2023-01-15T01:42:10.551Z,4.8
2023-01-15T01:43:10.131Z,4.7
2023-01-15T01:44:10.200Z,4.8
2023-01-15T01:45:10.249Z,4.8
2023-01-15T01:46:10.605Z,4.8
2023-01-15T01:47:09.587Z,4.8
2023-01-15T01:48:10.382Z,4.8
2023-01-15T01:49:10.498Z,4.8
2023-01-15T01:50:10.378Z,4.8
2023-01-15T01:51:10.403Z,4.8
2023-01-15T01:52:09.920Z,4.9
2023-01-15T01:54:10.424Z,4.8
2023-01-15T01:55:09.632Z,4.9
2023-01-15T01:56:10.402Z,4.8
2023-01-15T01:57:10.210Z,4.8
2023-01-15T01:58:10.678Z,4.8
2023-01-15T01:59:09.980Z,4.8
2023-01-15T02:00:10.572Z,4.8
2023-01-15T02:01:10.018Z,4.8
2023-01-15T02:02:10.148Z,4.8
2023-01-15T02:03:10.205Z,4.8
2023-01-15T02:04:09.792Z,4.8
2023-01-15T02:05:11.192Z,4.8
2023-01-15T02:06:10.917Z,4.8
2023-01-15T02:07:10.026Z,4.8
2023-01-15T02:08:10.203Z,4.8
2023-01-15T02:09:10.131Z,4.9
2023-01-15T02:10:09.872Z,4.8
2023-01-15T02:11:09.638Z,4.8
2023-01-15T02:12:09.554Z,4.8
2023-01-15T02:13:10.210Z,4.8
2023-01-15T02:14:09.957Z,4.8
2023-01-15T02:15:09.541Z,4.8
2023-01-15T02:16:09.823Z,4.8
2023-01-15T02:17:10.114Z,4.8
2023-01-15T02:18:09.603Z,4.8
2023-01-15T02:19:09.587Z,4.8
2023-01-15T02:20:10.558Z,4.8
2023-01-15T02:21:10.456Z,4.8
2023-01-15T02:22:10.989Z,4.9
2023-01-15T02:23:09.857Z,4.8
2023-01-15T02:24:10.259Z,4.9
2023-01-15T02:25:09.929Z,4.9
2023-01-15T02:26:09.636Z,4.9
2023-01-15T02:27:10.784Z,4.9
2023-01-15T02:28:10.474Z,4.9
2023-01-15T02:29:09.517Z,4.9
2023-01-15T02:30:10.812Z,4.9
2023-01-15T02:31:09.945Z,4.9
2023-01-15T02:32:09.584Z,4.9
2023-01-15T02:33:10.707Z,4.9
2023-01-15T02:34:10.112Z,4.9
2023-01-15T02:35:09.779Z,4.9
2023-01-15T02:36:10.220Z,4.9
2023-01-15T02:37:09.722Z,4.9
2023-01-15T02:38:10.096Z,4.9
2023-01-15T02:39:11.614Z,4.9
2023-01-15T02:40:09.659Z,4.9
2023-01-15T02:41:10.525Z,4.9
2023-01-15T02:42:09.840Z,4.9
2023-01-15T02:43:10.039Z,4.8
2023-01-15T02:44:09.539Z,4.9
2023-01-15T02:45:09.764Z,4.8
2023-01-15T02:46:10.201Z,4.8
2023-01-15T02:47:09.542Z,4.8
2023-01-15T02:48:09.774Z,4.8
2023-01-15T02:49:10.271Z,4.8
2023-01-15T02:50:09.786Z,4.8
2023-01-15T02:51:10.809Z,4.8
2023-01-15T02:52:10.132Z,4.8
2023-01-15T02:53:09.923Z,4.8
2023-01-15T02:54:11.078Z,4.8
2023-01-15T02:55:09.720Z,4.8
2023-01-15T02:56:10.422Z,4.9
2023-01-15T02:57:09.838Z,4.8
2023-01-15T02:58:10.329Z,4.8
2023-01-15T02:59:10.068Z,4.9
2023-01-15T03:00:10.379Z,4.9
2023-01-15T03:01:10.353Z,4.9
2023-01-15T03:02:09.278Z,4.9
2023-01-15T03:03:10.008Z,4.9
2023-01-15T03:04:09.543Z,4.9
2023-01-15T03:05:10.688Z,4.9
2023-01-15T03:06:10.500Z,4.9
2023-01-15T03:07:10.743Z,4.9
2023-01-15T03:08:09.566Z,4.9
2023-01-15T03:09:09.901Z,4.9
2023-01-15T03:10:09.916Z,4.9
2023-01-15T03:11:10.057Z,4.9
2023-01-15T03:12:10.365Z,4.9
2023-01-15T03:13:10.730Z,4.9
2023-01-15T03:14:10.192Z,4.9
2023-01-15T03:15:09.947Z,4.9
2023-01-15T03:16:09.803Z,4.9
2023-01-15T03:17:10.519Z,4.9
2023-01-15T03:18:10.448Z,4.9
2023-01-15T03:19:10.835Z,4.9
2023-01-15T03:20:10.171Z,4.9
2023-01-15T03:21:10.055Z,4.9
2023-01-15T03:22:10.740Z,4.9
2023-01-15T03:23:10.836Z,4.9
2023-01-15T03:24:10.385Z,4.9
2023-01-15T03:25:09.699Z,4.9
2023-01-15T03:26:10.195Z,4.9
2023-01-15T03:27:10.316Z,4.9
2023-01-15T03:28:10.058Z,4.9
2023-01-15T03:29:10.183Z,4.9
2023-01-15T03:30:09.559Z,4.9
2023-01-15T03:31:09.701Z,4.9
2023-01-15T03:32:10.153Z,4.9
2023-01-15T03:33:09.509Z,4.9
2023-01-15T03:34:10.289Z,4.9
2023-01-15T03:35:10.182Z,4.9
2023-01-15T03:36:09.577Z,4.9
2023-01-15T03:37:10.274Z,4.9
2023-01-15T03:38:09.585Z,5
2023-01-15T03:39:09.804Z,4.9
2023-01-15T03:40:09.611Z,4.9
2023-01-15T03:41:10.307Z,4.9
2023-01-15T03:42:09.676Z,4.9
2023-01-15T03:43:09.654Z,4.9
2023-01-15T03:44:09.535Z,4.9
2023-01-15T03:45:10.544Z,4.9
2023-01-15T03:46:10.089Z,4.9
2023-01-15T03:47:10.406Z,4.9
2023-01-15T03:48:10.182Z,4.9
2023-01-15T03:49:09.534Z,4.9
2023-01-15T03:50:09.856Z,4.9
2023-01-15T03:51:09.530Z,4.9
2023-01-15T03:52:09.577Z,4.9
2023-01-15T03:53:09.885Z,4.9
2023-01-15T03:54:09.590Z,4.9
2023-01-15T03:55:09.735Z,4.9
2023-01-15T03:56:10.226Z,5
2023-01-15T03:57:09.762Z,5
2023-01-15T03:58:10.190Z,5
2023-01-15T03:59:09.534Z,5
2023-01-15T04:00:09.543Z,5
2023-01-15T04:01:09.733Z,5
2023-01-15T04:02:10.252Z,5
2023-01-15T04:03:10.518Z,5
2023-01-15T04:04:10.047Z,5
2023-01-15T04:05:11.116Z,5
2023-01-15T04:06:10.871Z,5
2023-01-15T04:07:10.022Z,5
2023-01-15T04:08:10.118Z,5.1
2023-01-15T04:09:09.528Z,5.1
2023-01-15T04:10:09.918Z,5.1
2023-01-15T04:11:10.448Z,5.1
2023-01-15T04:12:10.226Z,5
2023-01-15T04:13:09.604Z,5
2023-01-15T04:14:09.815Z,5
2023-01-15T04:15:10.993Z,5
2023-01-15T04:16:10.894Z,5
2023-01-15T04:17:09.595Z,5
2023-01-15T04:18:10.354Z,5.1
2023-01-15T04:19:10.607Z,5.1
2023-01-15T04:20:09.558Z,5.1
2023-01-15T04:21:10.266Z,5.1
2023-01-15T04:22:09.660Z,5.1
2023-01-15T04:23:10.416Z,5.1
2023-01-15T04:24:10.038Z,5.1
2023-01-15T04:25:09.785Z,5.1
2023-01-15T04:26:09.592Z,5.1
2023-01-15T04:27:09.589Z,5.1
2023-01-15T04:28:10.719Z,5.1
2023-01-15T04:29:10.779Z,5.1
2023-01-15T04:30:10.225Z,5.1
2023-01-15T04:31:10.536Z,5.1
2023-01-15T04:32:10.042Z,5.1
2023-01-15T04:33:08.389Z,5.1
2023-01-15T04:34:10.146Z,5.1
2023-01-15T04:35:10.959Z,5.1
2023-01-15T04:36:09.968Z,5.1
2023-01-15T04:37:10.149Z,5.1
2023-01-15T04:38:09.564Z,5.1
2023-01-15T04:39:10.096Z,5.1
2023-01-15T04:40:10.003Z,5.1
2023-01-15T04:41:10.508Z,5.1
2023-01-15T04:42:09.887Z,5
2023-01-15T04:43:10.930Z,5
2023-01-15T04:44:10.198Z,5
2023-01-15T04:45:10.208Z,5
2023-01-15T04:46:10.852Z,5
2023-01-15T04:47:10.030Z,5
2023-01-15T04:48:09.792Z,5
2023-01-15T04:49:10.208Z,5
2023-01-15T04:50:10.071Z,5
2023-01-15T04:51:10.768Z,5
2023-01-15T04:52:09.952Z,4.9
2023-01-15T04:53:10.762Z,5
2023-01-15T04:54:10.281Z,5
2023-01-15T04:55:09.903Z,5
2023-01-15T04:56:10.693Z,5
2023-01-15T04:57:09.787Z,5
2023-01-15T04:58:10.023Z,4.9
2023-01-15T04:59:09.727Z,5
2023-01-15T05:00:10.692Z,4.9
2023-01-15T05:01:09.930Z,4.9
2023-01-15T05:02:10.522Z,4.9
2023-01-15T05:03:10.132Z,4.9
2023-01-15T05:04:10.318Z,4.9
2023-01-15T05:05:10.048Z,4.9
2023-01-15T05:06:10.242Z,4.9
2023-01-15T05:07:10.355Z,4.9
2023-01-15T05:08:10.371Z,4.9
2023-01-15T05:09:10.893Z,4.9
2023-01-15T05:10:09.781Z,4.9
2023-01-15T05:11:10.910Z,4.9
2023-01-15T05:12:10.291Z,4.9
2023-01-15T05:13:10.124Z,4.8
2023-01-15T05:14:09.626Z,4.9
2023-01-15T05:15:10.187Z,4.8
2023-01-15T05:16:09.939Z,4.9
2023-01-15T05:17:10.624Z,4.9
2023-01-15T05:18:08.341Z,4.9
2023-01-15T05:19:09.764Z,4.9
2023-01-15T05:20:10.239Z,4.9
2023-01-15T05:21:09.648Z,4.9
2023-01-15T05:22:10.763Z,4.9
2023-01-15T05:23:09.665Z,4.9
2023-01-15T05:24:10.165Z,4.9
2023-01-15T05:25:10.275Z,4.9
2023-01-15T05:26:10.007Z,4.9
2023-01-15T05:27:10.196Z,4.9
2023-01-15T05:28:10.236Z,5
2023-01-15T05:29:10.334Z,5
2023-01-15T05:30:10.411Z,5
2023-01-15T05:31:09.601Z,4.9
2023-01-15T05:32:10.480Z,5
2023-01-15T05:33:09.509Z,5
2023-01-15T05:34:10.209Z,5
2023-01-15T05:35:09.641Z,5
2023-01-15T05:36:09.756Z,4.9
2023-01-15T05:37:09.752Z,4.9
2023-01-15T05:38:09.775Z,4.9
2023-01-15T05:39:10.160Z,5
2023-01-15T05:40:10.696Z,5
2023-01-15T05:41:09.988Z,5
2023-01-15T05:42:09.597Z,5
2023-01-15T05:43:10.261Z,5
2023-01-15T05:44:09.956Z,5
2023-01-15T05:45:09.509Z,5
2023-01-15T05:46:09.984Z,5
2023-01-15T05:47:10.036Z,5
2023-01-15T05:48:09.730Z,5.1
2023-01-15T05:49:10.854Z,5
2023-01-15T05:50:10.443Z,5
2023-01-15T05:51:10.548Z,5
2023-01-15T05:52:11.078Z,5
2023-01-15T05:53:10.023Z,5
2023-01-15T05:54:10.070Z,5
2023-01-15T05:55:11.010Z,5
2023-01-15T05:56:10.089Z,4.9
2023-01-15T05:57:10.400Z,4.9
2023-01-15T05:58:10.103Z,4.9
2023-01-15T05:59:10.188Z,4.9
2023-01-15T06:00:09.709Z,4.9
2023-01-15T06:01:10.806Z,4.9
2023-01-15T06:02:09.904Z,4.8
2023-01-15T06:03:09.782Z,4.9
2023-01-15T06:04:08.621Z,4.9
2023-01-15T06:05:09.551Z,4.9
2023-01-15T06:06:10.144Z,4.8
2023-01-15T06:07:09.572Z,4.8
2023-01-15T06:08:09.970Z,4.8
2023-01-15T06:09:10.875Z,4.8
2023-01-15T06:10:09.528Z,4.8
2023-01-15T06:11:10.266Z,4.8
2023-01-15T06:12:09.602Z,4.8
2023-01-15T06:13:10.796Z,4.8
2023-01-15T06:14:10.828Z,4.8
2023-01-15T06:15:10.567Z,4.8
2023-01-15T06:16:10.205Z,4.8
2023-01-15T06:17:09.825Z,4.8
2023-01-15T06:18:10.198Z,4.8
2023-01-15T06:19:10.340Z,4.8
2023-01-15T06:20:10.189Z,4.8
2023-01-15T06:21:10.313Z,4.8
2023-01-15T06:22:10.993Z,4.7
2023-01-15T06:23:09.647Z,4.7
2023-01-15T06:24:11.164Z,4.7
2023-01-15T06:25:09.665Z,4.7
2023-01-15T06:26:10.021Z,4.7
2023-01-15T06:27:10.477Z,4.7
2023-01-15T06:28:09.889Z,4.7
2023-01-15T06:29:10.581Z,4.7
2023-01-15T06:30:10.111Z,4.7
2023-01-15T06:31:09.603Z,4.7
2023-01-15T06:32:10.734Z,4.7
2023-01-15T06:33:10.466Z,4.7
2023-01-15T06:34:10.617Z,4.7
2023-01-15T06:35:09.848Z,4.7
2023-01-15T06:36:09.978Z,4.7
2023-01-15T06:37:10.055Z,4.6
2023-01-15T06:38:09.900Z,4.6
2023-01-15T06:39:09.934Z,4.6
2023-01-15T06:40:10.063Z,4.6
2023-01-15T06:41:09.782Z,4.6
2023-01-15T06:42:09.507Z,4.6
2023-01-15T06:43:09.900Z,4.5
2023-01-15T06:44:10.013Z,4.5
2023-01-15T06:45:09.600Z,4.5
2023-01-15T06:46:10.122Z,4.5
2023-01-15T06:47:10.306Z,4.5
2023-01-15T06:48:09.791Z,4.5
2023-01-15T06:49:10.070Z,4.5
2023-01-15T06:50:10.957Z,4.4
2023-01-15T06:51:09.048Z,4.4
2023-01-15T06:52:10.200Z,4.4
2023-01-15T06:53:10.143Z,4.4
2023-01-15T06:54:09.864Z,4.4
2023-01-15T06:55:09.671Z,4.4
2023-01-15T06:56:10.576Z,4.3
2023-01-15T06:57:10.159Z,4.3
2023-01-15T06:58:09.579Z,4.3
2023-01-15T06:59:11.890Z,4.3
2023-01-15T07:00:10.014Z,4.2
2023-01-15T07:01:10.922Z,4.3
2023-01-15T07:02:10.703Z,4.3
2023-01-15T07:03:10.803Z,4.2
2023-01-15T07:04:09.947Z,4.2
2023-01-15T07:05:10.944Z,4.2
2023-01-15T07:06:09.837Z,4.1
2023-01-15T07:07:10.268Z,4.1
2023-01-15T07:08:10.963Z,4.1
2023-01-15T07:09:10.167Z,4.1
2023-01-15T07:10:09.494Z,4.1
2023-01-15T07:11:10.580Z,4
2023-01-15T07:12:10.280Z,4
2023-01-15T07:13:08.914Z,4
2023-01-15T07:14:09.862Z,4
2023-01-15T07:15:10.025Z,4.1
2023-01-15T07:16:09.669Z,4.1
2023-01-15T07:17:10.624Z,4
2023-01-15T07:18:10.348Z,4.1
2023-01-15T07:19:09.524Z,4
2023-01-15T07:20:09.949Z,4
2023-01-15T07:21:10.146Z,4
2023-01-15T07:22:10.451Z,4
2023-01-15T07:23:10.327Z,4
2023-01-15T07:24:09.863Z,4
2023-01-15T07:25:11.178Z,4
2023-01-15T07:26:09.568Z,3.9
2023-01-15T07:27:10.577Z,3.9
2023-01-15T07:28:10.248Z,3.9
2023-01-15T07:29:10.199Z,3.9
2023-01-15T07:30:10.688Z,4
2023-01-15T07:31:09.603Z,3.9
2023-01-15T07:32:10.157Z,3.9
2023-01-15T07:33:10.224Z,3.9
2023-01-15T07:34:08.418Z,4
2023-01-15T07:35:10.318Z,4
2023-01-15T07:36:10.141Z,4
2023-01-15T07:37:09.536Z,3.9
2023-01-15T07:38:09.500Z,3.9
2023-01-15T07:39:09.942Z,3.9
2023-01-15T07:40:10.446Z,3.9
2023-01-15T07:41:09.605Z,3.9
2023-01-15T07:42:11.002Z,3.9
2023-01-15T07:43:12.101Z,3.9
2023-01-15T07:44:10.715Z,3.9
2023-01-15T07:45:10.475Z,3.9
2023-01-15T07:46:09.800Z,4
2023-01-15T07:47:09.903Z,4
2023-01-15T07:48:10.174Z,4
2023-01-15T07:49:09.800Z,4
2023-01-15T07:50:10.298Z,4.1
2023-01-15T07:51:10.036Z,4.1
2023-01-15T07:52:10.045Z,4.1
2023-01-15T07:53:09.952Z,4.1
2023-01-15T07:54:09.556Z,4.1
2023-01-15T07:55:09.750Z,4.1
2023-01-15T07:56:09.647Z,4.1
2023-01-15T07:57:09.737Z,4.2
2023-01-15T07:58:10.544Z,4.2
2023-01-15T07:59:10.890Z,4.2
2023-01-15T08:00:10.930Z,4.1
2023-01-15T08:01:10.234Z,4.2
2023-01-15T08:02:09.844Z,4.2
2023-01-15T08:03:09.850Z,4.2
2023-01-15T08:04:10.270Z,4.2
2023-01-15T08:05:10.033Z,4.2
2023-01-15T08:06:09.828Z,4.2
2023-01-15T08:07:09.569Z,4.2
2023-01-15T08:08:10.163Z,4.2
2023-01-15T08:09:10.229Z,4.2
2023-01-15T08:10:09.529Z,4.2
2023-01-15T08:11:10.590Z,4.2
2023-01-15T08:12:10.116Z,4.2
2023-01-15T08:13:09.670Z,4.2
2023-01-15T08:14:10.672Z,4.2
2023-01-15T08:15:10.257Z,4.2
2023-01-15T08:16:09.672Z,4.2
2023-01-15T08:17:09.923Z,4.2
2023-01-15T08:18:08.550Z,4.3
2023-01-15T08:19:09.543Z,4.2
2023-01-15T08:20:10.715Z,4.3
2023-01-15T08:21:09.519Z,4.3
2023-01-15T08:22:09.614Z,4.3
2023-01-15T08:23:10.247Z,4.3
2023-01-15T08:24:10.538Z,4.3
2023-01-15T08:25:09.504Z,4.3
2023-01-15T08:26:09.612Z,4.3
2023-01-15T08:27:10.685Z,4.3
2023-01-15T08:28:10.371Z,4.3
2023-01-15T08:29:09.984Z,4.3
2023-01-15T08:30:10.682Z,4.3
2023-01-15T08:31:10.869Z,4.2
2023-01-15T08:32:10.105Z,4.2
2023-01-15T08:33:10.015Z,4.2
2023-01-15T08:34:09.715Z,4.1
2023-01-15T08:35:10.232Z,4.1
2023-01-15T08:36:09.675Z,4.1
2023-01-15T08:37:09.771Z,4.1
2023-01-15T08:38:10.838Z,4.1
2023-01-15T08:39:09.573Z,4.2
2023-01-15T08:40:10.137Z,4.2
2023-01-15T08:42:10.251Z,4.2
2023-01-15T08:43:09.566Z,4.2
2023-01-15T08:44:10.185Z,4.2
2023-01-15T08:45:10.563Z,4.2
2023-01-15T08:46:10.237Z,4.2
2023-01-15T08:47:09.480Z,4.3
2023-01-15T08:48:10.113Z,4.3
2023-01-15T08:49:10.006Z,4.4
2023-01-15T08:50:10.797Z,4.4
2023-01-15T08:51:09.479Z,4.4
2023-01-15T08:52:09.529Z,4.4
2023-01-15T08:53:09.531Z,4.4
2023-01-15T08:54:11.152Z,4.3
2023-01-15T08:55:10.527Z,4.3
2023-01-15T08:56:10.159Z,4.3
2023-01-15T08:57:09.970Z,4.3
2023-01-15T08:58:09.660Z,4.3
2023-01-15T08:59:10.086Z,4.3
2023-01-15T09:00:09.697Z,4.3
2023-01-15T09:01:09.840Z,4.2
2023-01-15T09:02:09.703Z,4.3
2023-01-15T09:03:10.835Z,4.2
2023-01-15T09:04:10.191Z,4.1
2023-01-15T09:05:10.198Z,4
2023-01-15T09:06:10.727Z,3.8
2023-01-15T09:07:10.164Z,3.7
2023-01-15T09:08:09.630Z,3.7
2023-01-15T09:09:09.865Z,3.8
2023-01-15T09:10:10.067Z,3.8
2023-01-15T09:11:10.152Z,3.8
2023-01-15T09:12:09.863Z,3.9
2023-01-15T09:13:10.476Z,3.9
2023-01-15T09:14:57.911Z,4
2023-01-15T09:15:09.522Z,4.1
2023-01-15T09:16:09.710Z,4.1
2023-01-15T09:17:09.684Z,4.2
2023-01-15T09:18:10.188Z,4.2
2023-01-15T09:19:09.468Z,4.3
2023-01-15T09:20:09.849Z,4.3
2023-01-15T09:21:10.124Z,4.3
2023-01-15T09:22:09.979Z,4.4
2023-01-15T09:23:10.519Z,4.4
2023-01-15T09:24:10.473Z,4.4
2023-01-15T09:25:10.234Z,4.5
2023-01-15T09:26:09.480Z,4.5
2023-01-15T09:27:09.551Z,4.5
2023-01-15T09:28:10.157Z,4.6
2023-01-15T09:29:09.480Z,4.6
2023-01-15T09:30:09.688Z,4.5
2023-01-15T09:31:09.593Z,4.5
2023-01-15T09:32:10.039Z,4.6
2023-01-15T09:33:10.121Z,4.6
2023-01-15T09:34:10.129Z,4.6
2023-01-15T09:35:09.813Z,4.6
2023-01-15T09:36:10.327Z,4.6
2023-01-15T09:37:10.138Z,4.6
2023-01-15T09:38:09.931Z,4.7
2023-01-15T09:39:10.055Z,4.7
2023-01-15T09:40:10.659Z,4.8
2023-01-15T09:41:09.536Z,4.7
2023-01-15T09:42:10.388Z,4.7
2023-01-15T09:43:09.471Z,4.8
2023-01-15T09:44:10.194Z,4.8
2023-01-15T09:45:10.470Z,4.7
2023-01-15T09:46:09.999Z,4.8
2023-01-15T09:47:10.095Z,4.8
2023-01-15T09:48:10.587Z,4.8
2023-01-15T09:49:09.682Z,4.8
2023-01-15T09:50:08.728Z,4.8
2023-01-15T09:51:10.204Z,4.7
2023-01-15T09:52:09.578Z,4.6
2023-01-15T09:53:09.976Z,4.6
2023-01-15T09:54:09.940Z,4.6
2023-01-15T09:55:09.606Z,4.5
2023-01-15T09:56:10.243Z,4.5
2023-01-15T09:57:09.739Z,4.5
2023-01-15T09:58:09.751Z,4.5
2023-01-15T09:59:10.563Z,4.6
2023-01-15T10:00:10.553Z,4.6
2023-01-15T10:01:09.602Z,4.6
2023-01-15T10:02:09.572Z,4.6
2023-01-15T10:03:09.533Z,4.7
2023-01-15T10:04:09.628Z,4.7
2023-01-15T10:05:09.956Z,4.8
2023-01-15T10:06:09.878Z,4.9
2023-01-15T10:07:09.489Z,5
2023-01-15T10:08:10.708Z,5.1
2023-01-15T10:09:09.471Z,5.1
2023-01-15T10:10:10.741Z,5.1
2023-01-15T10:11:09.568Z,5.1
2023-01-15T10:12:08.988Z,5.1
2023-01-15T10:13:09.595Z,5.1
2023-01-15T10:14:09.513Z,5.1
2023-01-15T10:15:09.638Z,5
2023-01-15T10:16:10.458Z,5
2023-01-15T10:17:10.100Z,4.9
2023-01-15T10:18:10.018Z,4.9
2023-01-15T10:19:10.135Z,4.9
2023-01-15T10:20:10.208Z,4.9
2023-01-15T10:21:09.878Z,4.9
2023-01-15T10:22:10.154Z,4.9
2023-01-15T10:23:10.034Z,4.9
2023-01-15T10:24:10.045Z,4.9
2023-01-15T10:25:10.822Z,4.8
2023-01-15T10:26:10.163Z,4.9
2023-01-15T10:27:10.054Z,4.9
2023-01-15T10:28:10.695Z,4.8
2023-01-15T10:29:10.177Z,4.8
2023-01-15T10:30:10.675Z,4.8
2023-01-15T10:31:10.130Z,4.8
2023-01-15T10:32:09.878Z,4.9
2023-01-15T10:33:09.593Z,4.8
2023-01-15T10:34:09.883Z,4.8
2023-01-15T10:35:09.989Z,4.8
2023-01-15T10:36:09.952Z,4.8
2023-01-15T10:37:09.954Z,4.9
2023-01-15T10:38:09.673Z,4.9
2023-01-15T10:39:10.774Z,4.9
2023-01-15T10:40:09.729Z,4.9
2023-01-15T10:41:09.489Z,4.9
2023-01-15T10:42:10.756Z,4.9
2023-01-15T10:43:10.150Z,5
2023-01-15T10:44:10.946Z,5
2023-01-15T10:45:10.459Z,5.1
2023-01-15T10:46:10.530Z,5.1
2023-01-15T10:47:10.316Z,5.2
2023-01-15T10:48:10.185Z,5.2
2023-01-15T10:49:09.789Z,5.3
2023-01-15T10:50:09.897Z,5.3
2023-01-15T10:51:10.202Z,5.4
2023-01-15T10:52:09.496Z,5.5
2023-01-15T10:53:09.601Z,5.5
2023-01-15T10:54:09.516Z,5.6
2023-01-15T10:55:09.510Z,5.6
2023-01-15T10:56:09.749Z,5.6
2023-01-15T10:57:09.702Z,5.7
2023-01-15T10:58:10.850Z,5.7
2023-01-15T10:59:08.281Z,5.7
2023-01-15T11:00:09.624Z,5.7
2023-01-15T11:01:10.135Z,5.6
2023-01-15T11:02:10.289Z,5.6
2023-01-15T11:03:10.099Z,5.6
2023-01-15T11:04:10.710Z,5.7
2023-01-15T11:05:10.882Z,5.7
2023-01-15T11:06:09.591Z,5.7
2023-01-15T11:07:10.356Z,5.7
2023-01-15T11:08:45.269Z,5.7
2023-01-15T11:09:11.565Z,5.8
2023-01-15T11:10:10.420Z,5.8
2023-01-15T11:11:09.927Z,5.8
2023-01-15T11:12:10.779Z,5.9
2023-01-15T11:13:10.804Z,5.9
2023-01-15T11:14:09.748Z,5.9
2023-01-15T11:15:09.491Z,5.9
2023-01-15T11:16:10.730Z,6
2023-01-15T11:17:10.204Z,6.1
2023-01-15T11:18:10.520Z,6.2
2023-01-15T11:19:09.684Z,6.3
2023-01-15T11:20:09.585Z,6.2
2023-01-15T11:21:08.475Z,6.2
2023-01-15T11:22:10.018Z,6.3
2023-01-15T11:23:10.047Z,6.4
2023-01-15T11:24:10.714Z,6.5
2023-01-15T11:25:10.355Z,6.7
2023-01-15T11:26:10.448Z,6.9
2023-01-15T11:27:09.744Z,6.9
2023-01-15T11:28:10.143Z,7
2023-01-15T11:29:09.750Z,7
2023-01-15T11:30:10.112Z,7.1
2023-01-15T11:31:09.654Z,6.9
2023-01-15T11:32:10.441Z,7.1
2023-01-15T11:33:10.368Z,7.1
2023-01-15T11:34:11.088Z,6.8
2023-01-15T11:35:10.395Z,6.9
2023-01-15T11:36:10.191Z,7.2
2023-01-15T11:37:10.410Z,7.2
2023-01-15T11:38:09.867Z,7.1
2023-01-15T11:39:10.469Z,7.1
2023-01-15T11:40:09.532Z,7
2023-01-15T11:41:10.265Z,7.1
2023-01-15T11:42:10.238Z,7.2
2023-01-15T11:43:10.323Z,7.4
2023-01-15T11:44:10.294Z,7.4
2023-01-15T11:45:09.649Z,7.7
2023-01-15T11:46:10.239Z,7.6
2023-01-15T11:47:10.339Z,7.6
2023-01-15T11:48:10.097Z,7.4
2023-01-15T11:49:09.617Z,7
2023-01-15T11:50:10.194Z,6.8
2023-01-15T11:51:10.065Z,6.6
2023-01-15T11:52:09.909Z,6.5
2023-01-15T11:53:09.969Z,6.4
2023-01-15T11:54:09.836Z,6.5
2023-01-15T11:55:11.034Z,6.6
2023-01-15T11:56:10.851Z,6.4
2023-01-15T11:57:10.561Z,6.4
2023-01-15T11:58:09.975Z,6.5
2023-01-15T11:59:09.843Z,6.5
2023-01-15T12:00:10.647Z,6.5
2023-01-15T12:01:09.516Z,6.5
2023-01-15T12:02:09.522Z,6.5
2023-01-15T12:03:10.360Z,6.6
2023-01-15T12:04:09.843Z,6.6
2023-01-15T12:05:10.285Z,6.7
2023-01-15T12:06:10.733Z,6.7
2023-01-15T12:07:10.220Z,6.8
2023-01-15T12:08:10.084Z,6.9
2023-01-15T12:09:10.019Z,7.1
2023-01-15T12:10:09.926Z,7.2
2023-01-15T12:11:25.474Z,7.1
2023-01-15T12:12:10.675Z,7
2023-01-15T12:13:10.153Z,6.8
2023-01-15T12:14:09.866Z,6.7
2023-01-15T12:15:10.970Z,6.6
2023-01-15T12:16:10.337Z,6.5
2023-01-15T12:17:09.821Z,6.4
2023-01-15T12:18:09.517Z,6.3
2023-01-15T12:19:11.181Z,6.3
2023-01-15T12:20:10.006Z,6.3
2023-01-15T12:21:09.795Z,6.3
2023-01-15T12:22:11.289Z,6.2
2023-01-15T12:23:09.819Z,6.2
2023-01-15T12:24:10.125Z,6.2
2023-01-15T12:25:09.469Z,6.3
2023-01-15T12:26:09.520Z,6.6
2023-01-15T12:27:09.992Z,6.6
2023-01-15T12:28:09.942Z,6.5
2023-01-15T12:29:09.535Z,6.4
2023-01-15T12:30:10.061Z,6.3
2023-01-15T12:31:09.514Z,6.2
2023-01-15T12:32:10.348Z,6.3
2023-01-15T12:33:09.754Z,6.2
2023-01-15T12:34:08.858Z,6.3
2023-01-15T12:35:09.862Z,6.3
2023-01-15T12:36:09.982Z,6.3
2023-01-15T12:37:09.495Z,6.4
2023-01-15T12:38:11.653Z,6.5
2023-01-15T12:39:09.847Z,6.5
2023-01-15T12:40:11.188Z,6.4
2023-01-15T12:41:09.680Z,6.4
2023-01-15T12:42:10.037Z,6.5
2023-01-15T12:43:10.126Z,6.5
2023-01-15T12:44:09.465Z,6.4
2023-01-15T12:45:09.809Z,6.5
2023-01-15T12:46:10.154Z,6.5
2023-01-15T12:47:10.070Z,6.5
2023-01-15T12:48:10.864Z,6.5
2023-01-15T12:49:10.541Z,6.5
2023-01-15T12:50:10.005Z,6.5
2023-01-15T12:51:09.473Z,6.6
2023-01-15T12:52:10.109Z,6.6
2023-01-15T12:53:10.315Z,6.5
2023-01-15T12:54:10.152Z,6.5
2023-01-15T12:55:10.008Z,6.5
2023-01-15T12:56:08.820Z,6.5
2023-01-15T12:57:10.529Z,6.5
2023-01-15T12:58:09.572Z,6.6
2023-01-15T12:59:10.817Z,6.6
2023-01-15T13:00:10.115Z,6.5
2023-01-15T13:01:10.450Z,6.5
2023-01-15T13:02:10.005Z,6.4
2023-01-15T13:03:10.102Z,6.4
2023-01-15T13:04:09.840Z,6.4
2023-01-15T13:05:09.465Z,6.3
2023-01-15T13:06:09.896Z,6.3
2023-01-15T13:07:09.484Z,6.3
2023-01-15T13:08:09.790Z,6.4
2023-01-15T13:09:09.851Z,6.4
2023-01-15T13:10:10.293Z,6.5
2023-01-15T13:11:10.295Z,6.7
2023-01-15T13:12:10.250Z,6.9
2023-01-15T13:13:09.824Z,7.7
2023-01-15T13:14:09.975Z,8.1
2023-01-15T13:15:10.054Z,7.8
2023-01-15T13:16:09.927Z,7.6
2023-01-15T13:17:09.980Z,7.5
2023-01-15T13:18:10.372Z,7.3
2023-01-15T13:19:10.208Z,7.1
2023-01-15T13:20:10.346Z,7.1
2023-01-15T13:21:10.124Z,6.9
2023-01-15T13:22:10.626Z,6.7
2023-01-15T13:23:10.443Z,6.6
2023-01-15T13:24:09.709Z,6.6
2023-01-15T13:25:09.705Z,6.6
2023-01-15T13:26:09.451Z,6.5
2023-01-15T13:27:10.231Z,6.5
2023-01-15T13:28:09.883Z,6.5
2023-01-15T13:29:09.471Z,6.5
2023-01-15T13:30:10.063Z,6.4
2023-01-15T13:31:10.013Z,6.4
2023-01-15T13:32:09.471Z,6.4
2023-01-15T13:33:10.346Z,6.4
2023-01-15T13:34:09.561Z,6.4
2023-01-15T13:35:10.613Z,6.4
2023-01-15T13:36:10.489Z,6.5
2023-01-15T13:37:10.000Z,6.5
2023-01-15T13:38:08.368Z,6.4
2023-01-15T13:39:09.797Z,6.4
2023-01-15T13:40:10.536Z,6.3
2023-01-15T13:41:10.408Z,6.3
2023-01-15T13:42:10.336Z,6.3
2023-01-15T13:43:09.893Z,6.3
2023-01-15T13:44:09.432Z,6.3
2023-01-15T13:45:10.068Z,6.3
2023-01-15T13:46:09.586Z,6.3
2023-01-15T13:47:10.181Z,6.4
2023-01-15T13:48:09.840Z,6.4
2023-01-15T13:49:10.674Z,6.4
2023-01-15T13:50:09.465Z,6.4
2023-01-15T13:51:10.016Z,6.5
2023-01-15T13:52:10.182Z,6.4
2023-01-15T13:53:09.796Z,6.5
2023-01-15T13:54:09.702Z,6.5
2023-01-15T13:55:09.598Z,6.5